Elkville, Illinois
Current Conditions -  °F | °C
As of 6:52 AM on Friday 28 Nov 2014 (Local Time) from KMDH Reporting Station
Haze Haze  
Wind Chill: 19°   Ceiling: Unl
Heat Index: 26°   Visibility: 6mi
Dew Point: 22°   Wind: 6mph
Humidity: 84%   Direction: 150°SSE
Pressure: 30.36"   Gusts: NA
Location:  37.91°N, 89.24°W
Report Text: KMDH 281252Z AUTO 15005KT 6SM BR CLR M03/M06 A3036 RMK AO2 SLP285 T10331056
Loading
Personal Weather Stations






























Interactive Weather Map New forecast layout! Learn more

10-Day Weather Forecast

Advertisements
Track Severe Weather on mobile